• Join FlightAware (Why Join?)
  • Login
  • US Flag 
10:11AM EDT


 

Airport Tracker/Info


-or-


 

Live Flight TrackerFlight Track Log ✈ UPS1132 ✈ 24-Apr-2013 ✈ KBUF - KSYR

Flight Track Log - Related Links

Times and Time Zones

All times are in EDT time to prevent confusion due to time zone crossing. See the UPS1132 flight status page for this flight to view local times or setup timezone preferences in your user account.

Time Position Orientation Groundspeed Altitude Reporting Facility
EDT Latitude Longitude Course Direction KTS MPH feet Rate Location/Type
06:07AM 42.9280 -78.7460 225° Southwest 125 144 2,700  Level FlightAware
06:08AM 42.9130 -78.7620 218° Southwest 145 167 3,400 1,320 Climbing FlightAware
06:08AM 42.9100 -78.7630 194° South 153 176 3,500 2,160 Climbing FlightAware
06:08AM 42.8940 -78.7410 135° Southeast 228 262 4,500 2,520 Climbing FlightAware
06:08AM 42.8910 -78.7190 101° East 255 293 5,200 2,640 Climbing FlightAware
06:08AM 42.8910 -78.7020 90° East 267 307 5,600 2,700 Climbing FlightAware
06:09AM 42.8890 -78.6470 93° East 291 335 7,000 3,120 Climbing FlightAware
06:09AM 42.8900 -78.6020 88° East 299 344 8,500 3,300 Climbing FlightAware
06:10AM 42.8950 -78.5250 85° East 317 365 10,600 2,280 Climbing FlightAware
06:11AM 42.9040 -78.4290 83° East 375 432 11,800 1,860 Climbing FlightAware
06:12AM 42.9150 -78.3150 82° East 409 471 13,400 2,400 Climbing FlightAware
06:12AM 42.9250 -78.2100 83° East 418 481 15,200 2,520 Climbing FlightAware
06:13AM 42.9350 -78.1040 83° East 427 491 16,800 1,380 Climbing FlightAware
06:14AM 42.9470 -77.9850 82° East 426 490 17,200 240 Climbing FlightAware
06:14AM 42.9570 -77.8780 83° East 427 491 17,200  Level FlightAware
06:15AM 42.9690 -77.7600 82° East 426 490 17,200 -120 Level FlightAware
06:16AM 42.9790 -77.6520 83° East 430 495 17,100 -540 Descending FlightAware
06:16AM 42.9890 -77.5470 83° East 411 473 16,500 -1,200 Descending FlightAware
06:17AM 42.9980 -77.4480 83° East 395 455 15,500 -1,440 Descending FlightAware
06:18AM 43.0080 -77.3350 83° East 391 450 14,500 -1,380 Descending FlightAware
06:19AM 43.0180 -77.2270 83° East 385 443 13,500 -1,680 Descending FlightAware
06:19AM 43.0270 -77.1300 83° East 378 435 12,200 -1,800 Descending FlightAware
06:20AM 43.0370 -77.0250 83° East 365 420 11,000 -900 Descending FlightAware
06:21AM 43.0450 -76.9330 83° East 343 395 11,000  Level FlightAware
06:21AM 43.0500 -76.8720 84° East 365 420 11,000  Level FlightAware
06:22AM 43.0610 -76.7570 83° East 365 420 11,000  Level FlightAware
06:23AM 43.0680 -76.6790 83° East 365 420 11,000 -1,860 Level FlightAware
06:23AM 43.0747 -76.6047 83° East 298 343 8,900 -3,240 Descending Boston Center
06:24AM 43.0828 -76.4972 84° East 281 323 6,300 -2,640 Descending Boston Center
06:25AM 43.0903 -76.3983 84° East 282 325 3,900 -1,800 Descending Boston Center
06:26AM 43.0997 -76.3050 82° East 241 277 2,900 -1,020 Descending Boston Center
06:27AM 43.1042 -76.2342 85° East 171 197 1,900 -900 Descending Boston Center
06:28AM 43.1078 -76.1858 84° East 116 133 1,200 -780 Descending Boston Center